EmailTwitter


Observations de surface / Canada / CYYZ (71624)

Régions: Québec | Canada | États-Unis | Europe | France | UK | Ailleurs
Station
Affichage
Infos & localisation pour CYYZ (71624) | Aide pour décoder les METARs

Observations prises le 2020-08-08 à 14H00 UTC à TORONTO A, ON (CYYZ)

Etat du ciel: quelques nuages.

Température: 24.0 Celsius

Point de rosée: 14.0 Celsius

Humidité relative: 54%

Indice Humidex: 27.

Vents: Nord-nord-est à 6 km/h ou 3 noeuds.

Pression au niveau moyen de la mer: 102.19 kilopascals.

Calage altimétrique: 102.20 kilopascals ou 30.18 pouces de mercure.

Visibilité horizontale: 15.00 milles terrestres ou 24.00 kilomètres.

Observation METAR:

CYYZ 081400Z 02003KT 15SM FEW015 FEW065 FEW120 24/14 A3018 RMK CF1SC1AC1 CF TR

SC TR AC TR SLP219 DENSITY ALT 1500FT=